createdAt,value
2022-10-29T00:02:08.619Z,21.44
2022-10-29T00:04:53.807Z,21.44
2022-10-29T00:07:38.934Z,21.46
2022-10-29T00:10:24.334Z,21.46
2022-10-29T00:13:09.510Z,21.45
2022-10-29T00:15:54.538Z,21.42
2022-10-29T00:18:40.137Z,21.41
2022-10-29T00:21:26.619Z,21.38
2022-10-29T00:24:12.011Z,21.34
2022-10-29T00:26:57.310Z,21.32
2022-10-29T00:29:42.667Z,21.30
2022-10-29T00:32:27.945Z,21.27
2022-10-29T00:35:13.157Z,21.23
2022-10-29T00:37:58.441Z,21.18
2022-10-29T00:40:44.163Z,21.17
2022-10-29T00:43:29.632Z,21.14
2022-10-29T00:46:26.842Z,21.12
2022-10-29T00:49:12.401Z,21.09
2022-10-29T00:51:58.956Z,21.07
2022-10-29T00:54:47.719Z,21.04
2022-10-29T00:57:40.686Z,21.02
2022-10-29T01:00:26.482Z,21.01
2022-10-29T01:03:12.107Z,20.98
2022-10-29T01:05:58.052Z,20.97
2022-10-29T01:08:43.363Z,20.96
2022-10-29T01:11:37.588Z,20.93
2022-10-29T01:14:52.325Z,20.91
2022-10-29T01:17:49.658Z,20.88
2022-10-29T01:20:50.304Z,20.86
2022-10-29T01:23:54.141Z,20.87
2022-10-29T01:27:02.688Z,20.85
2022-10-29T01:30:10.805Z,20.83
2022-10-29T01:33:38.387Z,20.80
2022-10-29T01:36:23.764Z,20.77
2022-10-29T01:39:23.293Z,20.75
2022-10-29T01:42:24.536Z,20.74
2022-10-29T01:45:12.776Z,20.74
2022-10-29T01:48:04.493Z,20.72
2022-10-29T01:50:54.739Z,20.71
2022-10-29T01:53:41.041Z,20.69
2022-10-29T01:56:26.550Z,20.69
2022-10-29T01:59:23.064Z,20.68
2022-10-29T02:02:34.988Z,20.66
2022-10-29T02:05:42.181Z,20.65
2022-10-29T02:08:41.960Z,20.64
2022-10-29T02:11:38.065Z,20.62
2022-10-29T02:14:30.122Z,20.62
2022-10-29T02:17:15.307Z,20.61
2022-10-29T02:20:05.494Z,20.60
2022-10-29T02:22:51.122Z,20.59
2022-10-29T02:25:36.822Z,20.59
2022-10-29T02:28:22.363Z,20.56
2022-10-29T02:31:07.906Z,20.57
2022-10-29T02:33:53.474Z,20.57
2022-10-29T02:36:39.020Z,20.57
2022-10-29T02:39:24.297Z,20.55
2022-10-29T02:42:09.577Z,20.54
2022-10-29T02:44:54.933Z,20.53
2022-10-29T02:47:40.314Z,20.53
2022-10-29T02:50:25.741Z,20.52
2022-10-29T02:53:10.924Z,20.51
2022-10-29T02:55:56.093Z,20.50
2022-10-29T02:58:41.545Z,20.49
2022-10-29T03:01:26.976Z,20.49
2022-10-29T03:04:12.094Z,20.48
2022-10-29T03:06:57.451Z,20.47
2022-10-29T03:09:42.701Z,20.47
2022-10-29T03:12:27.860Z,20.45
2022-10-29T03:15:13.120Z,20.45
2022-10-29T03:17:58.537Z,20.45
2022-10-29T03:20:45.507Z,20.44
2022-10-29T03:23:30.685Z,20.43
2022-10-29T03:26:16.084Z,20.43
2022-10-29T03:29:01.549Z,20.42
2022-10-29T03:31:46.903Z,20.42
2022-10-29T03:34:32.268Z,20.42
2022-10-29T03:37:17.521Z,20.41
2022-10-29T03:40:03.956Z,20.40
2022-10-29T03:42:49.350Z,20.40
2022-10-29T03:45:34.389Z,20.38
2022-10-29T03:48:20.451Z,20.38
2022-10-29T03:51:07.734Z,20.37
2022-10-29T03:53:52.864Z,20.35
2022-10-29T03:56:38.162Z,20.37
2022-10-29T03:59:23.414Z,20.35
2022-10-29T04:02:09.813Z,20.34
2022-10-29T04:04:55.031Z,20.33
2022-10-29T04:07:40.183Z,20.33
2022-10-29T04:10:26.784Z,20.32
2022-10-29T04:13:12.492Z,20.31
2022-10-29T04:15:58.101Z,20.31
2022-10-29T04:18:43.373Z,20.30
2022-10-29T04:23:40.246Z,20.30
2022-10-29T04:27:01.784Z,20.29
2022-10-29T04:30:45.228Z,20.28
2022-10-29T04:33:30.287Z,20.29
2022-10-29T04:36:15.580Z,20.27
2022-10-29T04:39:01.003Z,20.27
2022-10-29T04:41:49.622Z,20.26
2022-10-29T04:44:35.207Z,20.27
2022-10-29T04:47:20.543Z,20.26
2022-10-29T04:50:05.847Z,20.27
2022-10-29T04:52:51.264Z,20.25
2022-10-29T04:55:41.203Z,20.24
2022-10-29T04:58:26.774Z,20.24
2022-10-29T05:01:12.183Z,20.24
2022-10-29T05:04:00.009Z,20.25
2022-10-29T05:06:45.975Z,20.24
2022-10-29T05:09:31.392Z,20.24
2022-10-29T05:12:16.562Z,20.23
2022-10-29T05:15:01.918Z,20.24
2022-10-29T05:17:47.207Z,20.24
2022-10-29T05:20:33.026Z,20.25
2022-10-29T05:23:18.476Z,20.25
2022-10-29T05:26:03.965Z,20.25
2022-10-29T05:28:51.413Z,20.23
2022-10-29T05:31:36.814Z,20.24
2022-10-29T05:34:22.013Z,20.23
2022-10-29T05:37:07.332Z,20.23
2022-10-29T05:39:52.481Z,20.23
2022-10-29T05:42:39.326Z,20.23
2022-10-29T05:45:27.026Z,20.23
2022-10-29T05:51:03.111Z,20.24
2022-10-29T05:53:48.483Z,20.23
2022-10-29T05:56:33.625Z,20.24
2022-10-29T05:59:18.965Z,20.24
2022-10-29T06:02:04.462Z,20.23
2022-10-29T06:04:50.473Z,20.23
2022-10-29T06:07:36.086Z,20.23
2022-10-29T06:10:22.037Z,20.26
2022-10-29T06:13:15.354Z,20.26
2022-10-29T06:16:01.196Z,20.30
2022-10-29T06:18:46.717Z,20.32
2022-10-29T06:21:31.889Z,20.35
2022-10-29T06:24:17.479Z,20.38
2022-10-29T06:27:02.979Z,20.39
2022-10-29T06:29:48.359Z,20.43
2022-10-29T06:32:34.225Z,20.48
2022-10-29T06:35:20.170Z,20.50
2022-10-29T06:38:09.364Z,20.52
2022-10-29T06:40:56.682Z,20.54
2022-10-29T06:43:41.932Z,20.55
2022-10-29T06:46:27.073Z,20.55
2022-10-29T06:49:12.332Z,20.58
2022-10-29T06:51:57.515Z,20.57
2022-10-29T06:54:43.626Z,20.59
2022-10-29T06:57:29.748Z,20.58
2022-10-29T07:00:16.093Z,20.61
2022-10-29T07:03:02.406Z,20.62
2022-10-29T07:05:48.304Z,20.64
2022-10-29T07:08:33.922Z,20.66
2022-10-29T07:11:21.749Z,20.69
2022-10-29T07:14:08.725Z,20.70
2022-10-29T07:16:54.771Z,20.73
2022-10-29T07:22:27.259Z,20.77
2022-10-29T07:25:13.687Z,20.79
2022-10-29T07:28:06.419Z,20.81
2022-10-29T07:30:53.124Z,20.84
2022-10-29T07:33:38.473Z,20.85
2022-10-29T07:36:24.099Z,20.86
2022-10-29T07:39:09.407Z,20.89
2022-10-29T07:41:58.264Z,20.94
2022-10-29T07:44:44.484Z,20.96
2022-10-29T07:47:29.764Z,20.96
2022-10-29T07:50:15.228Z,20.99
2022-10-29T07:53:01.420Z,21.00
2022-10-29T07:55:55.530Z,21.01
2022-10-29T07:58:41.096Z,21.03
2022-10-29T08:01:26.429Z,21.09
2022-10-29T08:04:11.979Z,21.06
2022-10-29T08:06:57.436Z,21.04
2022-10-29T08:09:42.686Z,21.04
2022-10-29T08:12:27.977Z,21.03
2022-10-29T08:15:13.259Z,21.00
2022-10-29T08:17:58.536Z,21.09
2022-10-29T08:20:44.640Z,21.09
2022-10-29T08:23:30.391Z,21.10
2022-10-29T08:26:15.660Z,21.09
2022-10-29T08:29:00.901Z,21.08
2022-10-29T08:31:46.211Z,21.08
2022-10-29T08:34:31.535Z,21.08
2022-10-29T08:37:16.908Z,21.10
2022-10-29T08:40:02.012Z,21.12
2022-10-29T08:43:10.853Z,21.15
2022-10-29T08:45:57.413Z,21.14
2022-10-29T08:48:51.261Z,21.15
2022-10-29T08:51:39.254Z,21.19
2022-10-29T08:54:31.673Z,21.23
2022-10-29T08:57:21.747Z,21.23
2022-10-29T09:00:15.506Z,21.30
2022-10-29T09:03:01.561Z,21.34
2022-10-29T09:06:14.938Z,21.37
2022-10-29T09:09:00.019Z,21.40
2022-10-29T09:11:58.055Z,21.41
2022-10-29T09:15:04.209Z,21.43
2022-10-29T09:17:56.119Z,21.51
2022-10-29T09:20:53.764Z,21.51
2022-10-29T09:23:45.191Z,21.52
2022-10-29T09:26:51.170Z,21.53
2022-10-29T09:30:01.205Z,21.53
2022-10-29T09:33:07.528Z,21.53
2022-10-29T09:35:55.830Z,21.55
2022-10-29T09:38:51.620Z,21.56
2022-10-29T09:41:38.751Z,21.57
2022-10-29T09:44:49.829Z,21.59
2022-10-29T09:47:45.872Z,21.62
2022-10-29T09:50:36.436Z,21.63
2022-10-29T09:53:22.354Z,21.64
2022-10-29T09:56:09.647Z,21.64
2022-10-29T09:59:07.449Z,21.65
2022-10-29T10:01:52.942Z,21.69
2022-10-29T10:04:44.354Z,21.71
2022-10-29T10:07:30.056Z,21.68
2022-10-29T10:10:23.728Z,21.70
2022-10-29T10:13:17.006Z,21.71
2022-10-29T10:16:06.102Z,21.71
2022-10-29T10:18:51.402Z,21.72
2022-10-29T10:21:38.838Z,21.72
2022-10-29T10:24:35.978Z,21.76
2022-10-29T10:27:29.415Z,21.85
2022-10-29T10:30:17.902Z,21.83
2022-10-29T10:36:13.899Z,21.84
2022-10-29T10:39:00.559Z,21.86
2022-10-29T10:41:46.212Z,21.84
2022-10-29T10:44:32.343Z,21.87
2022-10-29T10:47:23.598Z,21.88
2022-10-29T10:50:26.472Z,21.89
2022-10-29T10:53:21.473Z,21.91
2022-10-29T10:56:06.789Z,21.91
2022-10-29T10:59:13.372Z,21.91
2022-10-29T11:02:00.724Z,21.85
2022-10-29T11:04:52.840Z,21.82
2022-10-29T11:07:47.590Z,21.82
2022-10-29T11:11:02.155Z,21.78
2022-10-29T11:13:49.086Z,21.75
2022-10-29T11:16:44.440Z,21.74
2022-10-29T11:19:42.094Z,21.67
2022-10-29T11:22:54.812Z,21.63
2022-10-29T11:25:46.036Z,21.61
2022-10-29T11:28:52.891Z,21.59
2022-10-29T11:31:49.870Z,21.59
2022-10-29T11:34:44.546Z,21.54
2022-10-29T11:37:33.878Z,21.52
2022-10-29T11:40:43.788Z,21.50
2022-10-29T11:43:29.226Z,21.49
2022-10-29T11:46:14.426Z,21.47
2022-10-29T11:49:08.713Z,21.44
2022-10-29T11:52:08.302Z,21.42
2022-10-29T11:55:31.562Z,21.40
2022-10-29T11:58:28.688Z,21.40
2022-10-29T12:01:22.861Z,21.35
2022-10-29T12:04:24.041Z,21.31
2022-10-29T12:07:12.865Z,21.29
2022-10-29T12:10:04.353Z,21.29
2022-10-29T12:13:11.420Z,21.27
2022-10-29T12:16:06.382Z,21.25
2022-10-29T12:19:18.203Z,21.23
2022-10-29T12:22:31.856Z,21.22
2022-10-29T12:25:42.887Z,21.21
2022-10-29T12:28:42.933Z,21.18
2022-10-29T12:31:31.596Z,21.16
2022-10-29T12:34:52.787Z,21.15
2022-10-29T12:37:49.284Z,21.12
2022-10-29T12:40:38.004Z,21.10
2022-10-29T12:43:27.360Z,21.08
2022-10-29T12:46:20.669Z,21.09
2022-10-29T12:49:22.866Z,21.08
2022-10-29T12:52:33.878Z,21.09
2022-10-29T12:55:19.910Z,21.04
2022-10-29T12:58:50.668Z,21.06
2022-10-29T13:02:05.828Z,21.08
2022-10-29T13:05:10.048Z,21.10
2022-10-29T13:08:01.779Z,21.07
2022-10-29T13:10:53.488Z,21.07
2022-10-29T13:13:47.532Z,21.06
2022-10-29T13:16:33.208Z,21.07
2022-10-29T13:19:36.666Z,21.07
2022-10-29T13:23:09.653Z,21.06
2022-10-29T13:25:58.092Z,21.07
2022-10-29T13:28:48.311Z,21.08
2022-10-29T13:31:33.853Z,21.08
2022-10-29T13:34:52.646Z,21.08
2022-10-29T13:37:47.272Z,21.07
2022-10-29T13:40:32.551Z,21.06
2022-10-29T13:43:18.831Z,21.04
2022-10-29T13:46:45.589Z,21.03
2022-10-29T13:49:37.307Z,21.00
2022-10-29T13:52:24.245Z,21.01
2022-10-29T13:55:14.380Z,20.99
2022-10-29T13:58:23.686Z,20.99
2022-10-29T14:01:14.652Z,20.98
2022-10-29T14:04:24.541Z,20.97
2022-10-29T14:07:17.548Z,20.96
2022-10-29T14:10:12.424Z,20.96
2022-10-29T14:13:07.434Z,20.95
2022-10-29T14:16:27.172Z,20.95
2022-10-29T14:19:21.214Z,20.95
2022-10-29T14:22:16.590Z,20.95
2022-10-29T14:25:23.693Z,20.93
2022-10-29T14:28:13.075Z,20.93
2022-10-29T14:31:14.653Z,20.92
2022-10-29T14:34:01.165Z,20.92
2022-10-29T14:36:48.909Z,20.91
2022-10-29T14:39:59.534Z,20.91
2022-10-29T14:42:48.349Z,20.91
2022-10-29T14:45:33.804Z,20.91
2022-10-29T14:48:19.423Z,20.92
2022-10-29T14:51:06.176Z,20.93
2022-10-29T14:54:00.003Z,20.91
2022-10-29T14:56:50.258Z,20.90
2022-10-29T14:59:36.030Z,20.90
2022-10-29T15:02:39.255Z,20.91
2022-10-29T15:05:25.094Z,20.90
2022-10-29T15:08:10.745Z,20.90
2022-10-29T15:10:58.116Z,20.90
2022-10-29T15:13:45.987Z,20.88
2022-10-29T15:16:35.714Z,20.88
2022-10-29T15:19:23.983Z,20.86
2022-10-29T15:22:11.087Z,20.87
2022-10-29T15:24:57.097Z,20.86
2022-10-29T15:27:42.837Z,20.88
2022-10-29T15:30:35.283Z,20.87
2022-10-29T15:33:31.603Z,20.87
2022-10-29T15:36:17.677Z,20.88
2022-10-29T15:39:20.017Z,20.87
2022-10-29T15:42:20.786Z,20.92
2022-10-29T15:45:06.185Z,20.92
2022-10-29T15:47:58.165Z,20.89
2022-10-29T15:50:45.822Z,20.91
2022-10-29T15:53:31.233Z,20.93
2022-10-29T15:56:16.654Z,20.94
2022-10-29T15:59:02.035Z,20.95
2022-10-29T16:01:47.448Z,20.95
2022-10-29T16:04:32.464Z,20.96
2022-10-29T16:07:18.085Z,20.96
2022-10-29T16:10:03.904Z,20.98
2022-10-29T16:12:50.086Z,20.99
2022-10-29T16:15:38.726Z,21.01
2022-10-29T16:18:27.550Z,21.02
2022-10-29T16:21:20.556Z,21.03
2022-10-29T16:24:06.389Z,21.07
2022-10-29T16:26:51.749Z,21.07
2022-10-29T16:29:37.033Z,21.08
2022-10-29T16:32:24.048Z,21.10
2022-10-29T16:35:26.867Z,21.10
2022-10-29T16:38:13.033Z,21.13
2022-10-29T16:40:58.320Z,21.14
2022-10-29T16:43:44.100Z,21.13
2022-10-29T16:46:31.827Z,21.14
2022-10-29T16:49:17.193Z,21.16
2022-10-29T16:52:02.493Z,21.22
2022-10-29T16:54:47.882Z,21.22
2022-10-29T16:57:34.426Z,21.26
2022-10-29T17:00:21.196Z,21.29
2022-10-29T17:03:11.354Z,21.28
2022-10-29T17:06:04.531Z,21.32
2022-10-29T17:08:50.842Z,21.33
2022-10-29T17:11:36.290Z,21.35
2022-10-29T17:14:21.592Z,21.36
2022-10-29T17:17:07.440Z,21.38
2022-10-29T17:19:53.807Z,21.37
2022-10-29T17:22:39.546Z,21.39
2022-10-29T17:25:25.043Z,21.40
2022-10-29T17:28:10.230Z,21.41
2022-10-29T17:30:56.188Z,21.42
2022-10-29T17:33:41.464Z,21.45
2022-10-29T17:36:26.675Z,21.45
2022-10-29T17:39:12.230Z,21.45
2022-10-29T17:41:57.393Z,21.46
2022-10-29T17:44:42.837Z,21.45
2022-10-29T17:47:28.120Z,21.47
2022-10-29T17:50:14.558Z,21.50
2022-10-29T17:52:59.959Z,21.51
2022-10-29T17:55:45.090Z,21.49
2022-10-29T17:58:31.222Z,21.48
2022-10-29T18:01:16.955Z,21.49
2022-10-29T18:04:02.552Z,21.49
2022-10-29T18:06:47.982Z,21.49
2022-10-29T18:09:33.153Z,21.51
2022-10-29T18:12:18.476Z,21.53
2022-10-29T18:15:04.044Z,21.51
2022-10-29T18:17:49.857Z,21.54
2022-10-29T18:20:35.109Z,21.55
2022-10-29T18:23:20.261Z,21.56
2022-10-29T18:26:19.040Z,21.56
2022-10-29T18:29:10.778Z,21.55
2022-10-29T18:31:56.462Z,21.54
2022-10-29T18:34:41.814Z,21.54
2022-10-29T18:37:27.422Z,21.56
2022-10-29T18:40:13.179Z,21.55
2022-10-29T18:42:59.765Z,21.56
2022-10-29T18:45:44.997Z,21.56
2022-10-29T18:51:26.720Z,21.61
2022-10-29T18:54:13.191Z,21.62
2022-10-29T18:56:58.666Z,21.61
2022-10-29T18:59:45.028Z,21.62
2022-10-29T19:02:30.588Z,21.65
2022-10-29T19:05:15.681Z,21.66
2022-10-29T19:08:01.589Z,21.64
2022-10-29T19:10:46.656Z,21.64
2022-10-29T19:13:32.819Z,21.66
2022-10-29T19:16:19.717Z,21.66
2022-10-29T19:19:07.988Z,21.66
2022-10-29T19:21:55.924Z,21.67
2022-10-29T19:24:41.530Z,21.68
2022-10-29T19:27:26.773Z,21.71
2022-10-29T19:30:12.275Z,21.72
2022-10-29T19:33:01.201Z,21.72
2022-10-29T19:35:50.334Z,21.70
2022-10-29T19:38:35.811Z,21.68
2022-10-29T19:41:21.735Z,21.68
2022-10-29T19:44:07.247Z,21.69
2022-10-29T19:46:52.691Z,21.67
2022-10-29T19:49:38.285Z,21.67
2022-10-29T19:52:24.018Z,21.71
2022-10-29T19:55:09.950Z,21.73
2022-10-29T19:57:55.208Z,21.76
2022-10-29T20:00:40.617Z,21.77
2022-10-29T20:03:26.325Z,21.78
2022-10-29T20:06:11.730Z,21.79
2022-10-29T20:08:57.261Z,21.79
2022-10-29T20:11:42.760Z,21.78
2022-10-29T20:14:29.247Z,21.76
2022-10-29T20:17:14.713Z,21.76
2022-10-29T20:19:59.987Z,21.76
2022-10-29T20:22:46.360Z,21.77
2022-10-29T20:25:31.645Z,21.75
2022-10-29T20:28:17.102Z,21.76
2022-10-29T20:31:18.164Z,21.74
2022-10-29T20:34:03.770Z,21.75
2022-10-29T20:36:49.561Z,21.72
2022-10-29T20:39:35.117Z,21.75
2022-10-29T20:42:20.276Z,21.77
2022-10-29T20:45:06.782Z,21.76
2022-10-29T20:47:52.013Z,21.76
2022-10-29T20:50:37.244Z,21.75
2022-10-29T20:53:22.540Z,21.77
2022-10-29T20:56:10.345Z,21.76
2022-10-29T20:58:58.693Z,21.77
2022-10-29T21:01:44.074Z,21.73
2022-10-29T21:04:29.614Z,21.75
2022-10-29T21:07:14.766Z,21.73
2022-10-29T21:09:59.873Z,21.75
2022-10-29T21:12:45.160Z,21.74
2022-10-29T21:15:30.867Z,21.76
2022-10-29T21:18:16.242Z,21.76
2022-10-29T21:21:05.264Z,21.76
2022-10-29T21:23:50.743Z,21.81
2022-10-29T21:26:36.313Z,21.79
2022-10-29T21:29:21.589Z,21.78
2022-10-29T21:32:06.752Z,21.78
2022-10-29T21:34:51.984Z,21.77
2022-10-29T21:37:37.053Z,21.76
2022-10-29T21:40:22.269Z,21.76
2022-10-29T21:43:07.444Z,21.77
2022-10-29T21:45:52.860Z,21.77
2022-10-29T21:48:38.234Z,21.77
2022-10-29T21:51:23.417Z,21.77
2022-10-29T21:54:08.827Z,21.78
2022-10-29T21:56:54.089Z,21.77
2022-10-29T21:59:39.347Z,21.78
2022-10-29T22:02:24.624Z,21.78
2022-10-29T22:05:10.531Z,21.78
2022-10-29T22:07:56.632Z,21.78
2022-10-29T22:10:42.032Z,21.78
2022-10-29T22:13:28.902Z,21.78
2022-10-29T22:16:14.357Z,21.79
2022-10-29T22:19:00.477Z,21.80
2022-10-29T22:21:46.339Z,21.78
2022-10-29T22:24:31.853Z,21.79
2022-10-29T22:27:17.331Z,21.78
2022-10-29T22:30:04.279Z,21.76
2022-10-29T22:32:49.501Z,21.78
2022-10-29T22:35:34.856Z,21.77
2022-10-29T22:38:20.017Z,21.77
2022-10-29T22:41:09.648Z,21.76
2022-10-29T22:43:56.104Z,21.77
2022-10-29T22:46:41.386Z,21.76
2022-10-29T22:49:26.506Z,21.75
2022-10-29T22:52:11.900Z,21.77
2022-10-29T22:54:57.033Z,21.78
2022-10-29T22:57:42.417Z,21.76
2022-10-29T23:00:27.693Z,21.77
2022-10-29T23:03:13.046Z,21.78
2022-10-29T23:06:00.042Z,21.77
2022-10-29T23:08:46.272Z,21.76
2022-10-29T23:11:34.964Z,21.74
2022-10-29T23:14:20.218Z,21.76
2022-10-29T23:17:05.323Z,21.77
2022-10-29T23:19:50.663Z,21.74
2022-10-29T23:22:35.814Z,21.77
2022-10-29T23:25:21.033Z,21.77
2022-10-29T23:28:06.495Z,21.77
2022-10-29T23:30:56.428Z,21.76
2022-10-29T23:33:50.689Z,21.74
2022-10-29T23:36:35.889Z,21.77
2022-10-29T23:39:21.365Z,21.79
2022-10-29T23:42:06.568Z,21.79
2022-10-29T23:44:52.081Z,21.78
2022-10-29T23:47:37.478Z,21.78
2022-10-29T23:50:22.630Z,21.82
2022-10-29T23:53:08.491Z,21.80
2022-10-29T23:55:53.817Z,21.79
2022-10-29T23:58:39.082Z,21.75
